createdAt,value
2023-02-06T00:01:37.572Z,12.85
2023-02-06T00:04:05.343Z,8.80
2023-02-06T00:06:33.449Z,11.03
2023-02-06T00:09:01.448Z,12.32
2023-02-06T00:11:29.281Z,14.00
2023-02-06T00:13:56.724Z,11.80
2023-02-06T00:16:31.124Z,10.32
2023-02-06T00:18:59.656Z,10.23
2023-02-06T00:21:29.801Z,10.90
2023-02-06T00:24:00.724Z,10.70
2023-02-06T00:26:28.954Z,8.63
2023-02-06T00:28:56.448Z,12.07
2023-02-06T00:31:25.502Z,10.57
2023-02-06T00:33:52.954Z,9.52
2023-02-06T00:36:20.314Z,10.10
2023-02-06T00:38:48.054Z,10.57
2023-02-06T00:41:15.536Z,12.03
2023-02-06T00:43:43.667Z,10.73
2023-02-06T00:46:11.363Z,9.23
2023-02-06T00:48:38.779Z,10.87
2023-02-06T00:51:06.472Z,12.65
2023-02-06T00:53:33.939Z,11.85
2023-02-06T00:56:01.340Z,12.32
2023-02-06T00:58:28.712Z,9.13
2023-02-06T01:00:56.222Z,11.35
2023-02-06T01:03:24.292Z,8.48
2023-02-06T01:05:51.662Z,9.77
2023-02-06T01:08:19.054Z,8.68
2023-02-06T01:10:46.641Z,9.73
2023-02-06T01:13:14.388Z,9.03
2023-02-06T01:15:41.926Z,7.97
2023-02-06T01:18:10.417Z,9.20
2023-02-06T01:20:41.196Z,9.25
2023-02-06T01:23:08.679Z,10.15
2023-02-06T01:25:37.326Z,10.40
2023-02-06T01:28:05.148Z,9.30
2023-02-06T01:30:32.684Z,8.52
2023-02-06T01:33:00.123Z,12.27
2023-02-06T01:35:29.609Z,7.88
2023-02-06T01:37:57.036Z,9.38
2023-02-06T01:40:24.493Z,6.80
2023-02-06T01:42:51.963Z,9.50
2023-02-06T01:45:53.019Z,9.63
2023-02-06T01:48:35.749Z,10.73
2023-02-06T01:51:07.066Z,10.85
2023-02-06T01:53:35.936Z,9.35
2023-02-06T01:56:06.734Z,10.25
2023-02-06T01:58:42.340Z,11.10
2023-02-06T02:01:11.390Z,11.77
2023-02-06T02:03:45.502Z,12.13
2023-02-06T02:06:21.132Z,9.75
2023-02-06T02:08:54.276Z,10.35
2023-02-06T02:11:35.623Z,9.15
2023-02-06T02:14:07.319Z,9.60
2023-02-06T02:17:00.310Z,8.38
2023-02-06T02:19:58.524Z,8.52
2023-02-06T02:22:34.862Z,7.50
2023-02-06T02:25:05.176Z,6.82
2023-02-06T02:28:01.738Z,9.75
2023-02-06T02:30:50.608Z,7.78
2023-02-06T02:33:45.179Z,9.27
2023-02-06T02:36:46.148Z,9.55
2023-02-06T02:39:20.193Z,8.95
2023-02-06T02:42:13.925Z,11.52
2023-02-06T02:44:52.771Z,7.93
2023-02-06T02:47:30.346Z,9.88
2023-02-06T02:50:01.892Z,7.88
2023-02-06T02:52:29.388Z,9.95
2023-02-06T02:54:56.804Z,8.65
2023-02-06T02:57:31.191Z,12.45
2023-02-06T03:00:01.599Z,23.67
2023-02-06T03:02:38.010Z,35.25
2023-02-06T03:05:13.538Z,29.80
2023-02-06T03:07:47.188Z,37.25
2023-02-06T03:11:00.844Z,45.08
2023-02-06T03:13:36.954Z,26.83
2023-02-06T03:16:23.676Z,31.58
2023-02-06T03:19:05.276Z,25.35
2023-02-06T03:21:36.719Z,22.77
2023-02-06T03:24:12.759Z,20.42
2023-02-06T03:26:42.942Z,21.38
2023-02-06T03:29:15.218Z,19.70
2023-02-06T03:31:52.563Z,17.40
2023-02-06T03:34:38.383Z,15.53
2023-02-06T03:37:05.885Z,17.52
2023-02-06T03:39:34.332Z,19.30
2023-02-06T03:42:04.970Z,13.40
2023-02-06T03:44:39.814Z,15.52
2023-02-06T03:47:10.451Z,12.98
2023-02-06T03:49:41.950Z,19.92
2023-02-06T03:52:13.870Z,18.55
2023-02-06T03:54:49.401Z,16.85
2023-02-06T03:57:19.741Z,17.17
2023-02-06T03:59:48.048Z,19.52
2023-02-06T04:02:18.020Z,19.23
2023-02-06T04:04:46.142Z,18.92
2023-02-06T04:07:30.333Z,14.32
2023-02-06T04:09:57.770Z,14.60
2023-02-06T04:12:25.742Z,14.90
2023-02-06T04:14:53.373Z,14.45
2023-02-06T04:17:38.428Z,16.88
2023-02-06T04:20:09.375Z,11.18
2023-02-06T04:25:04.122Z,10.65
2023-02-06T04:27:31.580Z,17.25
2023-02-06T04:29:59.113Z,17.65
2023-02-06T04:32:26.446Z,17.88
2023-02-06T04:34:53.847Z,18.20
2023-02-06T04:37:21.184Z,12.38
2023-02-06T04:39:48.684Z,29.63
2023-02-06T04:42:16.189Z,15.67
2023-02-06T04:44:43.489Z,17.80
2023-02-06T04:47:11.095Z,21.92
2023-02-06T04:49:38.465Z,30.40
2023-02-06T04:52:06.070Z,18.88
2023-02-06T04:54:33.428Z,18.85
2023-02-06T04:57:00.862Z,20.40
2023-02-06T04:59:28.450Z,20.80
2023-02-06T05:01:55.815Z,15.02
2023-02-06T05:04:23.124Z,18.17
2023-02-06T05:06:50.482Z,19.10
2023-02-06T05:09:18.009Z,12.55
2023-02-06T05:11:45.434Z,14.13
2023-02-06T05:14:12.939Z,12.48
2023-02-06T05:16:40.343Z,14.40
2023-02-06T05:19:07.817Z,14.27
2023-02-06T05:21:35.174Z,13.70
2023-02-06T05:24:02.570Z,15.45
2023-02-06T05:26:30.195Z,15.75
2023-02-06T05:28:57.694Z,14.57
2023-02-06T05:31:25.116Z,19.50
2023-02-06T05:33:52.950Z,30.80
2023-02-06T05:36:22.283Z,14.70
2023-02-06T05:38:50.250Z,15.68
2023-02-06T05:41:18.420Z,17.50
2023-02-06T05:43:46.244Z,14.50
2023-02-06T05:46:13.985Z,15.75
2023-02-06T05:48:41.539Z,16.45
2023-02-06T05:51:08.991Z,11.27
2023-02-06T05:53:36.424Z,17.08
2023-02-06T05:56:04.141Z,17.33
2023-02-06T05:58:31.867Z,16.08
2023-02-06T06:00:59.318Z,17.35
2023-02-06T06:03:26.852Z,24.73
2023-02-06T06:05:54.833Z,23.60
2023-02-06T06:08:22.860Z,25.35
2023-02-06T06:10:52.429Z,35.35
2023-02-06T06:13:19.845Z,18.05
2023-02-06T06:15:53.885Z,11.77
2023-02-06T06:18:21.819Z,13.40
2023-02-06T06:20:49.427Z,15.73
2023-02-06T06:23:16.979Z,15.38
2023-02-06T06:25:46.701Z,17.77
2023-02-06T06:28:14.443Z,19.88
2023-02-06T06:30:42.000Z,17.33
2023-02-06T06:33:09.456Z,12.13
2023-02-06T06:35:37.518Z,16.23
2023-02-06T06:38:05.176Z,12.02
2023-02-06T06:40:32.568Z,15.55
2023-02-06T06:42:59.998Z,18.27
2023-02-06T06:45:27.393Z,16.38
2023-02-06T06:47:54.803Z,18.15
2023-02-06T06:50:22.236Z,20.38
2023-02-06T06:52:49.707Z,22.15
2023-02-06T06:55:19.488Z,26.98
2023-02-06T06:57:47.634Z,24.70
2023-02-06T07:00:15.974Z,27.90
2023-02-06T07:02:43.908Z,27.42
2023-02-06T07:05:11.833Z,15.10
2023-02-06T07:07:39.520Z,19.95
2023-02-06T07:10:09.284Z,11.63
2023-02-06T07:12:36.738Z,13.25
2023-02-06T07:15:05.638Z,15.68
2023-02-06T07:17:33.382Z,24.50
2023-02-06T07:20:00.794Z,17.70
2023-02-06T07:22:28.291Z,28.60
2023-02-06T07:24:55.722Z,17.02
2023-02-06T07:27:23.137Z,25.02
2023-02-06T07:29:50.519Z,17.15
2023-02-06T07:32:17.878Z,16.60
2023-02-06T07:34:45.305Z,28.27
2023-02-06T07:37:12.778Z,28.30
2023-02-06T07:39:40.214Z,17.02
2023-02-06T07:42:08.190Z,16.58
2023-02-06T07:44:50.899Z,11.82
2023-02-06T07:47:18.299Z,17.17
2023-02-06T07:49:45.600Z,11.82
2023-02-06T07:52:13.212Z,14.00
2023-02-06T07:54:40.565Z,11.57
2023-02-06T07:57:08.036Z,21.75
2023-02-06T07:59:35.389Z,11.60
2023-02-06T08:02:02.711Z,18.23
2023-02-06T08:04:35.221Z,17.00
2023-02-06T08:07:04.839Z,13.38
2023-02-06T08:09:33.152Z,11.68
2023-02-06T08:12:00.625Z,19.38
2023-02-06T08:14:28.606Z,18.90
2023-02-06T08:16:56.062Z,12.35
2023-02-06T08:19:23.764Z,14.02
2023-02-06T08:21:51.577Z,19.20
2023-02-06T08:24:19.015Z,15.07
2023-02-06T08:26:46.391Z,15.75
2023-02-06T08:29:14.454Z,15.18
2023-02-06T08:31:43.268Z,12.52
2023-02-06T08:34:14.696Z,17.90
2023-02-06T08:36:43.738Z,10.18
2023-02-06T08:39:14.468Z,12.15
2023-02-06T08:41:44.013Z,21.00
2023-02-06T08:44:16.279Z,13.73
2023-02-06T08:46:46.275Z,18.27
2023-02-06T08:49:17.368Z,12.10
2023-02-06T08:51:45.922Z,33.50
2023-02-06T08:54:20.742Z,24.80
2023-02-06T08:56:49.844Z,12.52
2023-02-06T08:59:19.716Z,10.65
2023-02-06T09:01:49.141Z,12.93
2023-02-06T09:04:17.525Z,8.85
2023-02-06T09:06:48.953Z,9.80
2023-02-06T09:09:16.748Z,14.68
2023-02-06T09:11:44.767Z,13.80
2023-02-06T09:14:16.609Z,12.10
2023-02-06T09:16:44.528Z,15.45
2023-02-06T09:19:12.656Z,18.20
2023-02-06T09:21:40.225Z,11.52
2023-02-06T09:24:09.882Z,14.60
2023-02-06T09:26:57.340Z,11.82
2023-02-06T09:29:31.773Z,14.25
2023-02-06T09:32:00.591Z,20.35
2023-02-06T09:36:56.814Z,15.73
2023-02-06T09:42:06.008Z,12.13
2023-02-06T09:44:48.977Z,28.88
2023-02-06T09:47:34.333Z,22.98
2023-02-06T09:50:12.784Z,56.38
2023-02-06T09:55:45.361Z,23.08
2023-02-06T09:58:57.801Z,13.27
2023-02-06T10:02:07.723Z,13.57
2023-02-06T10:04:44.248Z,21.50
2023-02-06T10:07:48.680Z,8.88
2023-02-06T10:10:43.452Z,12.57
2023-02-06T10:13:57.264Z,13.13
2023-02-06T10:16:32.507Z,46.60
2023-02-06T10:19:09.278Z,23.67
2023-02-06T10:21:50.307Z,26.40
2023-02-06T10:24:40.028Z,25.88
2023-02-06T10:27:14.027Z,10.75
2023-02-06T10:29:46.491Z,18.45
2023-02-06T10:32:29.068Z,13.13
2023-02-06T10:35:23.864Z,25.13
2023-02-06T10:38:22.792Z,17.08
2023-02-06T10:41:21.817Z,32.90
2023-02-06T10:44:03.817Z,30.58
2023-02-06T10:46:46.134Z,18.20
2023-02-06T10:49:46.430Z,25.05
2023-02-06T10:52:30.015Z,15.98
2023-02-06T10:55:03.755Z,22.20
2023-02-06T10:57:32.036Z,16.33
2023-02-06T11:00:04.373Z,19.75
2023-02-06T11:03:06.646Z,26.92
2023-02-06T11:05:35.821Z,22.63
2023-02-06T11:08:29.795Z,25.10
2023-02-06T11:10:58.240Z,22.48
2023-02-06T11:13:34.292Z,17.80
2023-02-06T11:16:08.923Z,20.92
2023-02-06T11:18:42.326Z,33.20
2023-02-06T11:21:13.134Z,23.30
2023-02-06T11:23:42.232Z,24.98
2023-02-06T11:26:19.891Z,17.70
2023-02-06T11:29:09.406Z,18.60
2023-02-06T11:31:46.071Z,22.70
2023-02-06T11:34:49.482Z,20.13
2023-02-06T11:37:40.412Z,23.63
2023-02-06T11:40:19.963Z,23.88
2023-02-06T11:43:08.152Z,34.67
2023-02-06T11:45:35.837Z,26.42
2023-02-06T11:48:03.706Z,24.88
2023-02-06T11:50:35.520Z,21.43
2023-02-06T11:53:16.800Z,17.60
2023-02-06T11:55:57.503Z,18.70
2023-02-06T11:58:29.876Z,22.30
2023-02-06T12:01:06.722Z,22.00
2023-02-06T12:03:58.023Z,24.10
2023-02-06T12:06:30.570Z,38.17
2023-02-06T12:09:02.416Z,44.72
2023-02-06T12:11:50.356Z,25.40
2023-02-06T12:14:41.775Z,54.45
2023-02-06T12:17:39.859Z,25.33
2023-02-06T12:20:20.581Z,29.67
2023-02-06T12:22:56.166Z,27.15
2023-02-06T12:25:34.884Z,26.23
2023-02-06T12:28:34.037Z,19.80
2023-02-06T12:31:10.524Z,23.95
2023-02-06T12:33:48.361Z,28.67
2023-02-06T12:36:33.139Z,31.60
2023-02-06T12:39:23.339Z,25.05
2023-02-06T12:42:21.383Z,35.97
2023-02-06T12:45:34.150Z,27.95
2023-02-06T12:48:15.940Z,21.52
2023-02-06T12:51:11.499Z,15.95
2023-02-06T12:53:44.910Z,9.13
2023-02-06T12:56:47.833Z,9.50
2023-02-06T12:59:58.191Z,11.40
2023-02-06T13:03:29.863Z,11.32
2023-02-06T13:06:23.572Z,10.68
2023-02-06T13:08:59.730Z,25.00
2023-02-06T13:11:39.173Z,12.30
2023-02-06T13:14:17.696Z,11.15
2023-02-06T13:20:22.933Z,11.32
2023-02-06T13:23:12.108Z,13.05
2023-02-06T13:25:39.433Z,11.25
2023-02-06T13:28:21.996Z,11.20
2023-02-06T13:31:02.233Z,15.35
2023-02-06T13:33:56.438Z,13.20
2023-02-06T13:36:44.326Z,26.05
2023-02-06T13:39:28.970Z,24.27
2023-02-06T13:42:01.056Z,15.77
2023-02-06T13:44:33.788Z,19.05
2023-02-06T13:47:24.131Z,15.57
2023-02-06T13:50:24.685Z,19.50
2023-02-06T13:53:18.828Z,16.60
2023-02-06T13:56:09.647Z,21.55
2023-02-06T13:58:55.337Z,11.85
2023-02-06T14:01:29.922Z,13.10
2023-02-06T14:03:59.269Z,14.13
2023-02-06T14:06:40.080Z,11.52
2023-02-06T14:09:43.965Z,12.13
2023-02-06T14:12:35.644Z,20.80
2023-02-06T14:15:21.224Z,31.48
2023-02-06T14:18:27.001Z,11.18
2023-02-06T14:21:10.270Z,14.68
2023-02-06T14:23:58.715Z,12.95
2023-02-06T14:29:27.162Z,13.68
2023-02-06T14:32:30.307Z,13.70
2023-02-06T14:35:12.751Z,19.80
2023-02-06T14:38:25.926Z,15.18
2023-02-06T14:40:57.070Z,20.25
2023-02-06T14:43:32.087Z,28.52
2023-02-06T14:46:08.107Z,21.45
2023-02-06T14:48:52.725Z,21.35
2023-02-06T14:51:35.363Z,21.85
2023-02-06T14:54:06.770Z,21.05
2023-02-06T14:56:37.646Z,28.98
2023-02-06T14:59:13.903Z,24.52
2023-02-06T15:01:47.322Z,23.60
2023-02-06T15:04:30.386Z,18.48
2023-02-06T15:07:02.002Z,26.40
2023-02-06T15:09:40.428Z,34.28
2023-02-06T15:15:23.434Z,24.85
2023-02-06T15:18:07.645Z,43.67
2023-02-06T15:20:44.092Z,40.05
2023-02-06T15:23:51.828Z,31.83
2023-02-06T15:26:50.206Z,29.20
2023-02-06T15:31:53.059Z,34.90
2023-02-06T15:34:24.972Z,69.65
2023-02-06T15:36:52.927Z,71.25
2023-02-06T15:39:21.239Z,93.03
2023-02-06T15:41:51.962Z,53.78
2023-02-06T15:44:22.473Z,54.13
2023-02-06T15:46:51.454Z,59.25
2023-02-06T15:49:31.687Z,34.60
2023-02-06T15:51:59.075Z,50.05
2023-02-06T15:54:29.102Z,65.85
2023-02-06T15:57:02.827Z,51.88
2023-02-06T15:59:36.154Z,44.92
2023-02-06T16:02:04.808Z,49.17
2023-02-06T16:07:27.582Z,53.88
2023-02-06T16:10:28.666Z,43.58
2023-02-06T16:13:00.182Z,29.25
2023-02-06T16:15:37.857Z,23.00
2023-02-06T16:18:33.448Z,24.57
2023-02-06T16:21:15.743Z,29.70
2023-02-06T16:24:03.970Z,23.17
2023-02-06T16:26:52.146Z,26.65
2023-02-06T16:29:26.928Z,27.35
2023-02-06T16:32:03.244Z,28.40
2023-02-06T16:34:36.884Z,33.67
2023-02-06T16:37:12.000Z,34.42
2023-02-06T16:39:44.150Z,44.03
2023-02-06T16:42:35.224Z,35.10
2023-02-06T16:45:17.461Z,29.55
2023-02-06T16:47:45.577Z,44.17
2023-02-06T16:50:13.646Z,43.75
2023-02-06T16:52:51.375Z,57.80
2023-02-06T16:55:23.613Z,68.70
2023-02-06T16:57:56.832Z,40.33
2023-02-06T17:00:31.715Z,36.42
2023-02-06T17:02:59.830Z,41.83
2023-02-06T17:05:29.454Z,51.60
2023-02-06T17:07:57.007Z,82.30
2023-02-06T17:10:26.733Z,61.88
2023-02-06T17:12:54.328Z,49.53
2023-02-06T17:15:21.802Z,43.35
2023-02-06T17:17:49.334Z,23.05
2023-02-06T17:20:37.157Z,16.70
2023-02-06T17:23:05.692Z,36.42
2023-02-06T17:25:33.664Z,31.33
2023-02-06T17:28:01.474Z,23.05
2023-02-06T17:30:29.015Z,18.15
2023-02-06T17:32:56.503Z,31.92
2023-02-06T17:35:24.046Z,27.75
2023-02-06T17:37:51.757Z,27.38
2023-02-06T17:40:28.097Z,33.57
2023-02-06T17:42:57.653Z,29.48
2023-02-06T17:45:26.272Z,27.88
2023-02-06T17:47:54.088Z,24.70
2023-02-06T17:50:27.447Z,23.93
2023-02-06T17:52:56.136Z,24.77
2023-02-06T17:55:25.741Z,34.92
2023-02-06T17:57:54.483Z,39.60
2023-02-06T18:00:23.773Z,34.80
2023-02-06T18:02:53.712Z,30.58
2023-02-06T18:05:22.905Z,26.15
2023-02-06T18:07:51.891Z,28.15
2023-02-06T18:10:22.532Z,28.67
2023-02-06T18:12:50.595Z,28.52
2023-02-06T18:15:18.050Z,27.75
2023-02-06T18:17:45.505Z,26.80
2023-02-06T18:20:13.977Z,21.67
2023-02-06T18:22:41.619Z,16.42
2023-02-06T18:25:13.696Z,19.25
2023-02-06T18:27:42.862Z,19.40
2023-02-06T18:30:11.819Z,19.67
2023-02-06T18:32:39.609Z,17.70
2023-02-06T18:35:08.712Z,18.50
2023-02-06T18:37:36.480Z,18.65
2023-02-06T18:40:04.693Z,18.73
2023-02-06T18:42:50.813Z,21.88
2023-02-06T18:45:19.846Z,22.42
2023-02-06T18:47:47.959Z,22.63
2023-02-06T18:50:15.651Z,20.85
2023-02-06T18:52:43.226Z,20.77
2023-02-06T18:55:10.871Z,20.73
2023-02-06T18:57:38.384Z,19.05
2023-02-06T19:00:07.812Z,25.23
2023-02-06T19:02:35.459Z,26.38
2023-02-06T19:05:02.880Z,26.67
2023-02-06T19:07:30.437Z,24.23
2023-02-06T19:10:04.262Z,21.10
2023-02-06T19:12:31.918Z,22.65
2023-02-06T19:14:59.841Z,22.52
2023-02-06T19:17:28.338Z,25.73
2023-02-06T19:19:55.872Z,21.95
2023-02-06T19:22:23.992Z,22.77
2023-02-06T19:24:53.267Z,22.88
2023-02-06T19:27:21.877Z,21.40
2023-02-06T19:29:49.629Z,24.67
2023-02-06T19:32:17.171Z,18.93
2023-02-06T19:34:45.316Z,24.77
2023-02-06T19:37:13.473Z,20.90
2023-02-06T19:39:43.135Z,18.52
2023-02-06T19:42:15.616Z,16.55
2023-02-06T19:44:43.862Z,19.13
2023-02-06T19:47:11.352Z,21.08
2023-02-06T19:49:38.940Z,22.88
2023-02-06T19:52:06.576Z,29.70
2023-02-06T19:54:34.002Z,24.48
2023-02-06T19:57:01.475Z,30.23
2023-02-06T19:59:29.943Z,29.13
2023-02-06T20:02:01.193Z,31.73
2023-02-06T20:04:36.010Z,31.00
2023-02-06T20:07:03.783Z,27.98
2023-02-06T20:09:31.904Z,29.63
2023-02-06T20:11:59.465Z,31.23
2023-02-06T20:14:29.104Z,28.23
2023-02-06T20:16:56.623Z,23.92
2023-02-06T20:19:28.263Z,22.40
2023-02-06T20:21:59.689Z,22.80
2023-02-06T20:24:31.304Z,25.67
2023-02-06T20:27:05.776Z,28.20
2023-02-06T20:29:37.851Z,23.10
2023-02-06T20:32:07.347Z,26.90
2023-02-06T20:34:35.731Z,25.45
2023-02-06T20:37:04.066Z,41.92
2023-02-06T20:39:32.091Z,69.30
2023-02-06T20:41:59.722Z,54.75
2023-02-06T20:44:27.446Z,63.20
2023-02-06T20:46:54.837Z,65.93
2023-02-06T20:49:26.554Z,79.90
2023-02-06T20:51:54.791Z,85.32
2023-02-06T20:54:23.720Z,87.40
2023-02-06T20:56:51.426Z,58.05
2023-02-06T20:59:20.697Z,39.40
2023-02-06T21:01:48.659Z,38.72
2023-02-06T21:04:17.935Z,41.72
2023-02-06T21:06:47.888Z,43.53
2023-02-06T21:09:15.860Z,50.15
2023-02-06T21:11:48.023Z,50.25
2023-02-06T21:14:16.202Z,42.10
2023-02-06T21:16:44.356Z,47.28
2023-02-06T21:19:15.807Z,46.80
2023-02-06T21:21:45.959Z,52.20
2023-02-06T21:24:14.792Z,46.83
2023-02-06T21:26:43.428Z,48.70
2023-02-06T21:29:15.009Z,42.30
2023-02-06T21:31:43.208Z,34.55
2023-02-06T21:34:19.067Z,30.13
2023-02-06T21:36:46.569Z,27.25
2023-02-06T21:39:27.023Z,38.63
2023-02-06T21:41:55.112Z,37.55
2023-02-06T21:44:24.770Z,33.65
2023-02-06T21:46:53.330Z,40.38
2023-02-06T21:49:21.166Z,32.30
2023-02-06T21:51:50.330Z,37.92
2023-02-06T21:54:18.273Z,58.20
2023-02-06T21:56:45.637Z,37.17
2023-02-06T21:59:13.370Z,32.67
2023-02-06T22:01:41.220Z,36.30
2023-02-06T22:04:11.194Z,48.20
2023-02-06T22:06:39.527Z,40.88
2023-02-06T22:09:12.651Z,40.47
2023-02-06T22:11:40.277Z,46.17
2023-02-06T22:14:17.039Z,46.58
2023-02-06T22:16:46.838Z,35.03
2023-02-06T22:19:16.107Z,42.42
2023-02-06T22:21:43.791Z,50.03
2023-02-06T22:24:12.173Z,42.20
2023-02-06T22:26:39.678Z,41.88
2023-02-06T22:29:11.561Z,50.47
2023-02-06T22:31:43.108Z,48.80
2023-02-06T22:34:19.959Z,45.03
2023-02-06T22:36:51.133Z,39.85
2023-02-06T22:39:19.821Z,43.38
2023-02-06T22:44:17.577Z,39.10
2023-02-06T22:46:49.945Z,39.35
2023-02-06T22:49:19.268Z,42.63
2023-02-06T22:51:47.047Z,42.67
2023-02-06T22:54:14.871Z,36.80
2023-02-06T22:56:43.568Z,36.30
2023-02-06T23:02:04.400Z,33.67
2023-02-06T23:04:36.254Z,34.35
2023-02-06T23:07:03.993Z,41.65
2023-02-06T23:09:37.098Z,42.40
2023-02-06T23:12:05.734Z,40.30
2023-02-06T23:17:03.958Z,36.88
2023-02-06T23:19:31.907Z,45.15
2023-02-06T23:21:59.312Z,42.20
2023-02-06T23:24:26.797Z,31.90
2023-02-06T23:26:54.569Z,38.67
2023-02-06T23:29:23.907Z,40.92
2023-02-06T23:31:51.702Z,48.63
2023-02-06T23:34:20.595Z,54.17
2023-02-06T23:36:48.017Z,39.55
2023-02-06T23:39:15.871Z,38.13
2023-02-06T23:41:43.195Z,38.00
2023-02-06T23:44:11.024Z,38.30
2023-02-06T23:46:40.163Z,38.90
2023-02-06T23:49:07.990Z,33.90
2023-02-06T23:51:37.903Z,43.88
2023-02-06T23:54:08.046Z,42.13
2023-02-06T23:56:36.379Z,46.00
2023-02-06T23:59:05.547Z,51.95
